createdAt,value
2023-04-09T00:00:52.286Z,3.53
2023-04-09T00:01:55.496Z,3.55
2023-04-09T00:03:10.106Z,3.56
2023-04-09T00:04:18.431Z,3.55
2023-04-09T00:05:21.932Z,3.54
2023-04-09T00:06:31.629Z,3.55
2023-04-09T00:07:34.616Z,3.59
2023-04-09T00:08:40.934Z,3.59
2023-04-09T00:09:43.816Z,3.60
2023-04-09T00:10:49.235Z,3.63
2023-04-09T00:11:58.427Z,3.63
2023-04-09T00:13:03.893Z,3.67
2023-04-09T00:14:09.902Z,3.67
2023-04-09T00:15:24.009Z,3.70
2023-04-09T00:16:33.626Z,3.68
2023-04-09T00:17:37.107Z,3.69
2023-04-09T00:18:43.205Z,3.73
2023-04-09T00:19:46.158Z,3.74
2023-04-09T00:20:51.987Z,3.73
2023-04-09T00:21:57.874Z,3.71
2023-04-09T00:23:06.549Z,3.71
2023-04-09T00:24:09.523Z,3.72
2023-04-09T00:25:15.490Z,3.70
2023-04-09T00:26:18.115Z,3.74
2023-04-09T00:27:23.261Z,3.72
2023-04-09T00:28:26.277Z,3.76
2023-04-09T00:29:32.248Z,3.75
2023-04-09T00:30:35.350Z,3.76
2023-04-09T00:31:41.230Z,3.75
2023-04-09T00:32:44.601Z,3.77
2023-04-09T00:33:50.456Z,3.74
2023-04-09T00:34:53.702Z,3.78
2023-04-09T00:36:02.090Z,3.74
2023-04-09T00:37:07.715Z,3.79
2023-04-09T00:38:13.643Z,3.79
2023-04-09T00:39:19.773Z,3.79
2023-04-09T00:40:32.886Z,3.77
2023-04-09T00:41:36.307Z,3.77
2023-04-09T00:42:42.226Z,3.77
2023-04-09T00:43:48.075Z,3.78
2023-04-09T00:44:54.374Z,3.84
2023-04-09T00:46:04.082Z,3.85
2023-04-09T00:47:10.206Z,3.82
2023-04-09T00:48:16.769Z,3.86
2023-04-09T00:49:20.244Z,3.83
2023-04-09T00:50:26.047Z,3.86
2023-04-09T00:51:29.665Z,3.84
2023-04-09T00:52:37.781Z,3.81
2023-04-09T00:53:41.159Z,3.79
2023-04-09T00:54:47.597Z,3.78
2023-04-09T00:55:58.968Z,3.86
2023-04-09T00:57:07.046Z,3.85
2023-04-09T00:58:19.357Z,3.83
2023-04-09T00:59:22.278Z,3.87
2023-04-09T01:00:31.491Z,3.86
2023-04-09T01:01:34.251Z,3.88
2023-04-09T01:02:39.742Z,3.87
2023-04-09T01:03:43.369Z,3.89
2023-04-09T01:04:52.516Z,3.88
2023-04-09T01:06:03.193Z,3.86
2023-04-09T01:07:15.058Z,3.82
2023-04-09T01:08:32.638Z,3.84
2023-04-09T01:09:44.467Z,3.83
2023-04-09T01:10:53.356Z,3.84
2023-04-09T01:12:12.937Z,3.81
2023-04-09T01:13:20.796Z,3.81
2023-04-09T01:14:31.441Z,3.83
2023-04-09T01:15:38.491Z,3.81
2023-04-09T01:16:48.221Z,3.84
2023-04-09T01:17:57.237Z,3.84
2023-04-09T01:19:06.327Z,3.87
2023-04-09T01:20:18.778Z,3.86
2023-04-09T01:21:29.889Z,3.84
2023-04-09T01:22:45.374Z,3.85
2023-04-09T01:24:04.314Z,3.84
2023-04-09T01:25:19.363Z,3.84
2023-04-09T01:26:36.018Z,3.88
2023-04-09T01:28:01.329Z,3.88
2023-04-09T01:29:11.120Z,3.87
2023-04-09T01:30:19.578Z,3.94
2023-04-09T01:31:29.176Z,3.95
2023-04-09T01:32:36.962Z,3.94
2023-04-09T01:33:40.868Z,3.95
2023-04-09T01:34:52.416Z,3.93
2023-04-09T01:35:55.787Z,3.92
2023-04-09T01:37:04.886Z,3.89
2023-04-09T01:38:14.596Z,3.92
2023-04-09T01:39:23.677Z,3.92
2023-04-09T01:40:28.024Z,3.91
2023-04-09T01:41:36.187Z,3.90
2023-04-09T01:42:39.933Z,3.90
2023-04-09T01:43:47.270Z,3.92
2023-04-09T01:44:54.214Z,3.90
2023-04-09T01:46:00.512Z,3.91
2023-04-09T01:47:04.440Z,3.89
2023-04-09T01:48:10.557Z,3.90
2023-04-09T01:49:17.097Z,3.85
2023-04-09T01:50:23.207Z,3.86
2023-04-09T01:51:37.776Z,3.84
2023-04-09T01:52:43.567Z,3.81
2023-04-09T01:53:47.100Z,3.78
2023-04-09T01:54:55.804Z,3.77
2023-04-09T01:56:00.207Z,3.81
2023-04-09T01:57:07.112Z,3.83
2023-04-09T01:58:10.348Z,3.80
2023-04-09T01:59:19.179Z,3.81
2023-04-09T02:00:28.170Z,3.81
2023-04-09T02:01:42.473Z,3.78
2023-04-09T02:02:59.514Z,3.76
2023-04-09T02:04:08.472Z,3.78
2023-04-09T02:05:17.594Z,3.76
2023-04-09T02:06:30.370Z,3.77
2023-04-09T02:07:41.381Z,3.76
2023-04-09T02:08:53.447Z,3.76
2023-04-09T02:09:57.728Z,3.76
2023-04-09T02:11:07.877Z,3.71
2023-04-09T02:12:15.588Z,3.68
2023-04-09T02:13:24.488Z,3.67
2023-04-09T02:14:36.217Z,3.69
2023-04-09T02:15:46.811Z,3.67
2023-04-09T02:16:49.869Z,3.68
2023-04-09T02:17:56.301Z,3.67
2023-04-09T02:19:02.108Z,3.68
2023-04-09T02:20:08.746Z,3.67
2023-04-09T02:21:14.015Z,3.68
2023-04-09T02:22:23.228Z,3.64
2023-04-09T02:23:29.769Z,3.67
2023-04-09T02:24:36.709Z,3.63
2023-04-09T02:25:39.754Z,3.61
2023-04-09T02:26:48.123Z,3.59
2023-04-09T02:27:53.872Z,3.61
2023-04-09T02:28:59.941Z,3.59
2023-04-09T02:30:02.075Z,3.58
2023-04-09T02:31:09.668Z,3.56
2023-04-09T02:32:11.999Z,3.55
2023-04-09T02:33:16.879Z,3.54
2023-04-09T02:34:19.115Z,3.54
2023-04-09T02:35:23.987Z,3.55
2023-04-09T02:36:26.707Z,3.54
2023-04-09T02:37:31.579Z,3.55
2023-04-09T02:38:33.700Z,3.54
2023-04-09T02:39:38.560Z,3.54
2023-04-09T02:40:41.504Z,3.55
2023-04-09T02:41:46.520Z,3.52
2023-04-09T02:42:48.680Z,3.53
2023-04-09T02:43:53.438Z,3.53
2023-04-09T02:44:56.006Z,3.52
2023-04-09T02:46:00.779Z,3.52
2023-04-09T02:47:05.611Z,3.51
2023-04-09T02:48:10.593Z,3.51
2023-04-09T02:49:12.801Z,3.52
2023-04-09T02:50:17.646Z,3.53
2023-04-09T02:51:20.568Z,3.53
2023-04-09T02:52:26.236Z,3.58
2023-04-09T02:53:28.474Z,3.57
2023-04-09T02:54:33.284Z,3.56
2023-04-09T02:55:35.642Z,3.55
2023-04-09T02:56:40.539Z,3.56
2023-04-09T02:57:42.734Z,3.55
2023-04-09T02:58:49.792Z,3.56
2023-04-09T02:59:52.120Z,3.55
2023-04-09T03:00:56.945Z,3.56
2023-04-09T03:01:59.407Z,3.54
2023-04-09T03:03:07.362Z,3.51
2023-04-09T03:04:10.205Z,3.49
2023-04-09T03:05:15.504Z,3.46
2023-04-09T03:06:18.788Z,3.44
2023-04-09T03:07:23.912Z,3.43
2023-04-09T03:08:26.125Z,3.44
2023-04-09T03:09:31.376Z,3.42
2023-04-09T03:10:33.588Z,3.44
2023-04-09T03:11:38.471Z,3.45
2023-04-09T03:12:41.078Z,3.46
2023-04-09T03:13:45.960Z,3.51
2023-04-09T03:14:48.388Z,3.50
2023-04-09T03:15:55.043Z,3.47
2023-04-09T03:16:57.216Z,3.45
2023-04-09T03:18:02.124Z,3.44
2023-04-09T03:19:07.027Z,3.42
2023-04-09T03:20:12.496Z,3.40
2023-04-09T03:21:15.143Z,3.40
2023-04-09T03:22:20.103Z,3.38
2023-04-09T03:23:22.351Z,3.36
2023-04-09T03:24:27.522Z,3.32
2023-04-09T03:25:29.766Z,3.30
2023-04-09T03:26:36.696Z,3.31
2023-04-09T03:27:38.958Z,3.29
2023-04-09T03:28:43.750Z,3.29
2023-04-09T03:29:46.140Z,3.26
2023-04-09T03:30:50.983Z,3.27
2023-04-09T03:31:53.419Z,3.26
2023-04-09T03:32:59.665Z,3.25
2023-04-09T03:34:01.813Z,3.24
2023-04-09T03:35:09.833Z,3.28
2023-04-09T03:36:14.687Z,3.28
2023-04-09T03:37:16.848Z,3.29
2023-04-09T03:38:22.274Z,3.26
2023-04-09T03:39:24.537Z,3.28
2023-04-09T03:40:29.352Z,3.29
2023-04-09T03:41:34.186Z,3.27
2023-04-09T03:42:37.653Z,3.27
2023-04-09T03:43:42.726Z,3.25
2023-04-09T03:44:44.940Z,3.26
2023-04-09T03:45:49.878Z,3.27
2023-04-09T03:46:52.126Z,3.31
2023-04-09T03:47:58.100Z,3.34
2023-04-09T03:49:00.852Z,3.39
2023-04-09T03:50:08.704Z,3.42
2023-04-09T03:51:12.723Z,3.46
2023-04-09T03:52:17.585Z,3.43
2023-04-09T03:53:20.086Z,3.40
2023-04-09T03:54:24.966Z,3.40
2023-04-09T03:55:27.427Z,3.38
2023-04-09T03:56:32.222Z,3.35
2023-04-09T03:57:34.449Z,3.41
2023-04-09T03:58:40.152Z,3.44
2023-04-09T03:59:42.481Z,3.44
2023-04-09T04:00:47.240Z,3.43
2023-04-09T04:01:49.805Z,3.38
2023-04-09T04:02:55.002Z,3.41
2023-04-09T04:03:57.654Z,3.43
2023-04-09T04:05:02.606Z,3.42
2023-04-09T04:06:07.940Z,3.41
2023-04-09T04:07:12.982Z,3.39
2023-04-09T04:08:15.305Z,3.36
2023-04-09T04:09:20.052Z,3.38
2023-04-09T04:10:22.286Z,3.34
2023-04-09T04:11:27.306Z,3.36
2023-04-09T04:12:31.430Z,3.35
2023-04-09T04:13:36.332Z,3.35
2023-04-09T04:14:38.580Z,3.40
2023-04-09T04:15:44.255Z,3.39
2023-04-09T04:16:46.529Z,3.40
2023-04-09T04:17:51.427Z,3.39
2023-04-09T04:18:54.064Z,3.43
2023-04-09T04:19:59.325Z,3.42
2023-04-09T04:21:01.622Z,3.41
2023-04-09T04:22:09.165Z,3.42
2023-04-09T04:23:11.520Z,3.36
2023-04-09T04:24:17.153Z,3.38
2023-04-09T04:25:19.759Z,3.35
2023-04-09T04:26:25.071Z,3.40
2023-04-09T04:27:31.226Z,3.37
2023-04-09T04:28:44.032Z,3.32
2023-04-09T04:29:46.455Z,3.32
2023-04-09T04:30:52.031Z,3.30
2023-04-09T04:31:55.684Z,3.28
2023-04-09T04:33:01.341Z,3.27
2023-04-09T04:34:06.883Z,3.28
2023-04-09T04:35:16.058Z,3.30
2023-04-09T04:36:22.614Z,3.28
2023-04-09T04:37:33.987Z,3.27
2023-04-09T04:38:40.347Z,3.24
2023-04-09T04:39:49.725Z,3.24
2023-04-09T04:40:53.213Z,3.23
2023-04-09T04:42:02.069Z,3.22
2023-04-09T04:43:05.449Z,3.22
2023-04-09T04:44:11.817Z,3.25
2023-04-09T04:45:18.893Z,3.27
2023-04-09T04:46:42.005Z,3.31
2023-04-09T04:47:45.236Z,3.31
2023-04-09T04:48:55.249Z,3.28
2023-04-09T04:49:59.016Z,3.28
2023-04-09T04:51:07.627Z,3.31
2023-04-09T04:52:10.081Z,3.32
2023-04-09T04:53:18.080Z,3.34
2023-04-09T04:54:20.306Z,3.34
2023-04-09T04:55:25.502Z,3.32
2023-04-09T04:56:27.932Z,3.30
2023-04-09T04:57:32.856Z,3.29
2023-04-09T04:58:35.060Z,3.20
2023-04-09T04:59:40.753Z,3.16
2023-04-09T05:00:43.007Z,3.10
2023-04-09T05:01:48.068Z,3.08
2023-04-09T05:02:50.576Z,3.01
2023-04-09T05:03:55.968Z,2.92
2023-04-09T05:04:58.595Z,2.86
2023-04-09T05:06:03.532Z,2.75
2023-04-09T05:07:05.981Z,2.66
2023-04-09T05:08:10.934Z,2.63
2023-04-09T05:09:15.908Z,2.58
2023-04-09T05:10:21.268Z,2.55
2023-04-09T05:11:23.727Z,2.47
2023-04-09T05:12:28.701Z,2.44
2023-04-09T05:13:30.922Z,2.37
2023-04-09T05:14:35.798Z,2.32
2023-04-09T05:15:41.596Z,2.26
2023-04-09T05:16:46.603Z,2.20
2023-04-09T05:17:48.930Z,2.17
2023-04-09T05:18:54.167Z,2.13
2023-04-09T05:19:58.180Z,2.12
2023-04-09T05:21:03.012Z,2.09
2023-04-09T05:22:05.341Z,2.09
2023-04-09T05:23:12.778Z,2.07
2023-04-09T05:24:20.656Z,2.01
2023-04-09T05:25:22.904Z,2.06
2023-04-09T05:26:27.858Z,2.05
2023-04-09T05:27:30.610Z,2.08
2023-04-09T05:28:36.216Z,2.08
2023-04-09T05:29:38.376Z,2.10
2023-04-09T05:30:43.433Z,2.10
2023-04-09T05:31:48.460Z,2.12
2023-04-09T05:32:50.903Z,2.13
2023-04-09T05:33:56.085Z,2.18
2023-04-09T05:34:58.313Z,2.23
2023-04-09T05:36:03.266Z,2.28
2023-04-09T05:37:05.577Z,2.25
2023-04-09T05:38:10.898Z,2.28
2023-04-09T05:39:13.154Z,2.31
2023-04-09T05:40:20.859Z,2.32
2023-04-09T05:41:23.045Z,2.36
2023-04-09T05:42:28.041Z,2.50
2023-04-09T05:43:30.672Z,2.51
2023-04-09T05:44:35.935Z,2.47
2023-04-09T05:45:38.289Z,2.48
2023-04-09T05:46:43.233Z,2.51
2023-04-09T05:47:45.550Z,2.53
2023-04-09T05:48:52.415Z,2.59
2023-04-09T05:49:55.112Z,2.59
2023-04-09T05:51:01.038Z,2.62
2023-04-09T05:52:03.594Z,2.60
2023-04-09T05:53:08.750Z,2.62
2023-04-09T05:54:11.071Z,2.63
2023-04-09T05:55:16.172Z,2.64
2023-04-09T05:56:23.006Z,2.67
2023-04-09T05:57:30.448Z,2.69
2023-04-09T05:58:32.793Z,2.78
2023-04-09T05:59:37.680Z,2.81
2023-04-09T06:00:42.598Z,2.81
2023-04-09T06:01:47.566Z,2.82
2023-04-09T06:02:49.885Z,2.83
2023-04-09T06:03:57.743Z,2.85
2023-04-09T06:05:00.907Z,2.86
2023-04-09T06:06:07.870Z,2.87
2023-04-09T06:07:10.185Z,2.91
2023-04-09T06:08:15.156Z,2.92
2023-04-09T06:09:17.405Z,3.00
2023-04-09T06:10:22.734Z,3.02
2023-04-09T06:11:27.968Z,3.08
2023-04-09T06:12:32.960Z,3.11
2023-04-09T06:13:35.206Z,3.12
2023-04-09T06:14:40.278Z,3.15
2023-04-09T06:15:42.648Z,3.20
2023-04-09T06:16:47.629Z,3.23
2023-04-09T06:17:49.903Z,3.26
2023-04-09T06:18:57.178Z,3.31
2023-04-09T06:19:59.734Z,3.39
2023-04-09T06:21:05.566Z,3.46
2023-04-09T06:22:10.632Z,3.47
2023-04-09T06:23:15.543Z,3.53
2023-04-09T06:24:17.832Z,3.56
2023-04-09T06:25:23.059Z,3.57
2023-04-09T06:26:28.006Z,3.61
2023-04-09T06:27:32.959Z,3.65
2023-04-09T06:28:35.209Z,3.68
2023-04-09T06:29:40.144Z,3.74
2023-04-09T06:30:42.461Z,3.77
2023-04-09T06:31:47.729Z,3.84
2023-04-09T06:32:55.274Z,3.92
2023-04-09T06:33:57.766Z,3.94
2023-04-09T06:35:02.458Z,4.00
2023-04-09T06:36:08.300Z,4.11
2023-04-09T06:37:13.483Z,4.20
2023-04-09T06:38:15.937Z,4.19
2023-04-09T06:39:20.956Z,4.26
2023-04-09T06:40:23.550Z,4.26
2023-04-09T06:41:31.108Z,4.32
2023-04-09T06:42:33.486Z,4.38
2023-04-09T06:43:39.158Z,4.40
2023-04-09T06:44:44.122Z,4.48
2023-04-09T06:45:46.543Z,4.53
2023-04-09T06:46:52.082Z,4.61
2023-04-09T06:47:57.236Z,4.66
2023-04-09T06:48:59.676Z,4.70
2023-04-09T06:50:04.815Z,4.75
2023-04-09T06:51:10.744Z,4.84
2023-04-09T06:52:13.118Z,4.92
2023-04-09T06:53:18.550Z,4.95
2023-04-09T06:54:21.333Z,5.03
2023-04-09T06:55:27.400Z,5.01
2023-04-09T06:56:35.121Z,5.06
2023-04-09T06:57:38.740Z,5.13
2023-04-09T06:58:44.050Z,5.21
2023-04-09T06:59:46.581Z,5.27
2023-04-09T07:00:51.880Z,5.38
2023-04-09T07:01:54.728Z,5.46
2023-04-09T07:02:59.943Z,5.49
2023-04-09T07:04:05.258Z,5.48
2023-04-09T07:05:08.145Z,5.56
2023-04-09T07:06:13.549Z,5.51
2023-04-09T07:07:16.057Z,5.55
2023-04-09T07:08:23.293Z,5.54
2023-04-09T07:09:25.742Z,5.54
2023-04-09T07:10:30.790Z,5.55
2023-04-09T07:11:38.486Z,5.67
2023-04-09T07:12:40.857Z,5.71
2023-04-09T07:13:45.960Z,5.79
2023-04-09T07:14:48.284Z,5.85
2023-04-09T07:15:53.325Z,5.90
2023-04-09T07:16:58.281Z,5.92
2023-04-09T07:18:03.320Z,5.94
2023-04-09T07:19:07.717Z,6.03
2023-04-09T07:20:14.065Z,5.95
2023-04-09T07:21:19.492Z,6.04
2023-04-09T07:22:22.308Z,6.02
2023-04-09T07:23:27.467Z,6.01
2023-04-09T07:24:32.838Z,5.99
2023-04-09T07:25:35.068Z,5.96
2023-04-09T07:26:42.965Z,5.93
2023-04-09T07:27:48.422Z,5.94
2023-04-09T07:28:53.561Z,5.94
2023-04-09T07:29:56.584Z,5.89
2023-04-09T07:31:02.925Z,5.94
2023-04-09T07:32:05.736Z,5.93
2023-04-09T07:33:10.898Z,5.97
2023-04-09T07:34:15.954Z,6.03
2023-04-09T07:35:19.026Z,6.13
2023-04-09T07:36:24.280Z,6.17
2023-04-09T07:37:29.652Z,6.21
2023-04-09T07:38:35.155Z,6.27
2023-04-09T07:39:37.634Z,6.34
2023-04-09T07:40:42.781Z,6.38
2023-04-09T07:41:48.900Z,6.37
2023-04-09T07:42:54.319Z,6.45
2023-04-09T07:43:56.957Z,6.50
2023-04-09T07:45:03.680Z,6.57
2023-04-09T07:46:08.808Z,6.58
2023-04-09T07:47:13.858Z,6.56
2023-04-09T07:48:18.978Z,6.57
2023-04-09T07:49:24.053Z,6.59
2023-04-09T07:50:29.224Z,6.69
2023-04-09T07:51:31.767Z,6.50
2023-04-09T07:52:36.673Z,6.54
2023-04-09T07:53:38.925Z,6.59
2023-04-09T07:54:43.866Z,6.58
2023-04-09T07:55:48.867Z,6.71
2023-04-09T07:56:53.978Z,6.83
2023-04-09T07:57:59.268Z,6.92
2023-04-09T07:59:01.503Z,6.93
2023-04-09T08:00:07.177Z,7.00
2023-04-09T08:01:12.138Z,7.01
2023-04-09T08:02:15.518Z,7.08
2023-04-09T08:03:20.791Z,7.13
2023-04-09T08:04:23.476Z,7.20
2023-04-09T08:05:29.224Z,7.30
2023-04-09T08:06:34.402Z,7.40
2023-04-09T08:07:39.600Z,7.42
2023-04-09T08:08:44.479Z,7.34
2023-04-09T08:09:51.560Z,7.37
2023-04-09T08:10:57.381Z,7.46
2023-04-09T08:12:02.584Z,7.54
2023-04-09T08:13:08.733Z,7.51
2023-04-09T08:14:13.323Z,7.68
2023-04-09T08:15:18.318Z,7.77
2023-04-09T08:16:21.632Z,7.81
2023-04-09T08:17:27.942Z,7.88
2023-04-09T08:18:30.399Z,7.94
2023-04-09T08:19:36.463Z,8.02
2023-04-09T08:20:45.439Z,8.06
2023-04-09T08:21:51.666Z,8.12
2023-04-09T08:22:56.987Z,8.17
2023-04-09T08:24:01.688Z,8.32
2023-04-09T08:25:07.280Z,8.37
2023-04-09T08:26:12.663Z,8.46
2023-04-09T08:27:20.426Z,8.51
2023-04-09T08:28:25.380Z,8.55
2023-04-09T08:29:30.684Z,8.48
2023-04-09T08:30:34.566Z,8.40
2023-04-09T08:31:39.789Z,8.57
2023-04-09T08:32:44.961Z,8.57
2023-04-09T08:33:47.389Z,8.62
2023-04-09T08:34:52.297Z,8.69
2023-04-09T08:35:54.631Z,8.76
2023-04-09T08:37:01.557Z,8.89
2023-04-09T08:38:09.953Z,9.05
2023-04-09T08:43:56.219Z,9.21
2023-04-09T08:45:15.853Z,9.33
2023-04-09T08:46:28.712Z,9.44
2023-04-09T08:47:37.105Z,9.60
2023-04-09T08:48:50.136Z,9.64
2023-04-09T08:51:39.862Z,10.01
2023-04-09T08:53:12.329Z,10.37
2023-04-09T08:55:52.680Z,11.09
2023-04-09T08:56:58.490Z,11.05
2023-04-09T08:58:09.967Z,11.03
2023-04-09T08:59:44.561Z,11.15
2023-04-09T09:05:32.543Z,12.65
2023-04-09T09:07:08.913Z,13.28
2023-04-09T09:10:04.848Z,13.91
2023-04-09T09:11:30.816Z,14.26
2023-04-09T09:12:47.587Z,14.30
2023-04-09T09:14:07.731Z,14.40
2023-04-09T09:15:33.737Z,14.23
2023-04-09T09:18:59.433Z,15.34
2023-04-09T09:20:50.972Z,15.63
2023-04-09T09:30:43.516Z,17.93
2023-04-09T09:32:39.094Z,18.32
2023-04-09T09:35:50.829Z,18.78
2023-04-09T09:39:41.104Z,18.32
2023-04-09T09:41:24.258Z,17.86
2023-04-09T09:49:31.042Z,17.82
2023-04-09T09:53:28.292Z,17.18
2023-04-09T09:55:43.969Z,17.49
2023-04-09T09:57:31.737Z,17.97
2023-04-09T10:02:05.380Z,18.02
2023-04-09T10:10:58.713Z,17.11
2023-04-09T10:13:10.420Z,17.44
2023-04-09T10:21:52.728Z,17.54
2023-04-09T10:23:57.152Z,17.72
2023-04-09T10:30:13.643Z,17.18
2023-04-09T10:32:20.814Z,17.57
2023-04-09T10:34:35.251Z,17.47
2023-04-09T10:40:42.035Z,17.81
2023-04-09T10:56:11.576Z,21.06
2023-04-09T11:02:06.832Z,21.18
2023-04-09T11:21:23.150Z,17.83
2023-04-09T11:25:17.350Z,17.69
2023-04-09T11:27:06.618Z,17.08
2023-04-09T11:29:04.422Z,16.83
2023-04-09T11:30:42.529Z,16.83
2023-04-09T11:31:55.463Z,17.14
2023-04-09T11:34:38.959Z,17.36
2023-04-09T11:36:28.370Z,17.30
2023-04-09T11:38:30.730Z,16.89
2023-04-09T11:46:51.650Z,18.30
2023-04-09T11:48:35.887Z,19.16
2023-04-09T11:52:29.080Z,19.56
2023-04-09T11:58:08.679Z,19.01
2023-04-09T11:59:59.827Z,18.52
2023-04-09T12:01:25.081Z,18.43
2023-04-09T12:05:33.801Z,17.86
2023-04-09T12:18:34.170Z,20.26
2023-04-09T12:25:13.424Z,21.48
2023-04-09T12:31:12.924Z,19.88
2023-04-09T12:35:01.646Z,18.99
2023-04-09T12:36:46.882Z,18.44
2023-04-09T12:42:25.489Z,17.58
2023-04-09T12:44:32.549Z,17.50
2023-04-09T12:46:24.307Z,17.03
2023-04-09T12:48:00.036Z,17.00
2023-04-09T12:49:44.962Z,16.96
2023-04-09T12:54:20.382Z,16.36
2023-04-09T12:55:52.011Z,16.27
2023-04-09T12:57:38.000Z,16.04
2023-04-09T13:08:44.753Z,17.40
2023-04-09T13:10:52.562Z,19.36
2023-04-09T13:13:06.410Z,21.34
2023-04-09T13:14:33.982Z,21.86
2023-04-09T13:16:10.642Z,22.36
2023-04-09T13:17:57.304Z,21.47
2023-04-09T13:21:34.415Z,19.31
2023-04-09T13:23:33.062Z,18.81
2023-04-09T13:24:39.930Z,18.70
2023-04-09T13:26:03.734Z,18.19
2023-04-09T13:31:25.425Z,16.51
2023-04-09T13:38:16.139Z,21.96
2023-04-09T13:41:37.390Z,21.10
2023-04-09T13:43:08.711Z,20.68
2023-04-09T13:49:27.164Z,22.17
2023-04-09T13:53:38.841Z,20.87
2023-04-09T13:55:18.037Z,20.06
2023-04-09T14:04:03.525Z,17.49
2023-04-09T14:05:47.391Z,17.07
2023-04-09T14:11:25.990Z,17.10
2023-04-09T14:14:37.586Z,16.51
2023-04-09T14:21:35.984Z,16.49
2023-04-09T14:25:24.928Z,16.21
2023-04-09T14:30:24.269Z,15.87
2023-04-09T14:36:41.469Z,20.23
2023-04-09T14:38:35.506Z,21.97
2023-04-09T14:42:55.742Z,25.04
2023-04-09T14:52:34.962Z,26.76
2023-04-09T14:54:20.553Z,26.42
2023-04-09T14:55:50.699Z,28.40
2023-04-09T14:57:56.511Z,29.51
2023-04-09T15:01:33.998Z,31.57
2023-04-09T15:03:19.657Z,31.41
2023-04-09T15:06:51.104Z,30.44
2023-04-09T15:10:40.787Z,29.11
2023-04-09T15:12:20.564Z,28.41
2023-04-09T15:13:49.669Z,27.87
2023-04-09T15:17:38.602Z,26.92
2023-04-09T15:24:17.866Z,26.49
2023-04-09T15:25:54.091Z,26.66
2023-04-09T15:27:41.480Z,26.22
2023-04-09T15:29:18.557Z,25.38
2023-04-09T15:40:32.439Z,19.10
2023-04-09T15:44:01.100Z,18.10
2023-04-09T15:45:55.470Z,17.66
2023-04-09T15:47:33.161Z,17.55
2023-04-09T15:49:06.171Z,17.43
2023-04-09T15:50:59.569Z,17.68
2023-04-09T15:52:34.097Z,18.89
2023-04-09T15:54:22.876Z,20.67
2023-04-09T15:55:56.935Z,22.37
2023-04-09T15:57:18.925Z,23.54
2023-04-09T16:11:14.126Z,27.91
2023-04-09T16:12:43.592Z,28.22
2023-04-09T16:14:33.608Z,28.17
2023-04-09T16:16:53.394Z,28.57
2023-04-09T16:19:30.201Z,26.34
2023-04-09T16:20:32.848Z,25.16
2023-04-09T16:21:46.247Z,24.32
2023-04-09T16:22:52.772Z,23.79
2023-04-09T16:23:55.315Z,23.87
2023-04-09T16:25:00.541Z,24.16
2023-04-09T16:26:02.941Z,24.71
2023-04-09T16:27:08.165Z,25.11
2023-04-09T16:28:10.686Z,25.41
2023-04-09T16:29:18.750Z,25.88
2023-04-09T16:30:21.458Z,25.73
2023-04-09T16:31:26.525Z,26.26
2023-04-09T16:32:34.387Z,25.53
2023-04-09T16:33:36.948Z,25.29
2023-04-09T16:34:44.653Z,24.32
2023-04-09T16:35:47.259Z,23.12
2023-04-09T16:36:52.390Z,23.15
2023-04-09T16:37:54.847Z,23.09
2023-04-09T16:39:07.737Z,23.07
2023-04-09T16:40:10.778Z,23.25
2023-04-09T16:41:15.968Z,23.43
2023-04-09T16:42:25.586Z,23.59
2023-04-09T16:43:27.843Z,23.19
2023-04-09T16:44:33.292Z,23.62
2023-04-09T16:45:35.919Z,23.09
2023-04-09T16:46:46.996Z,23.13
2023-04-09T16:47:55.068Z,23.21
2023-04-09T16:49:02.717Z,22.67
2023-04-09T16:50:12.692Z,22.84
2023-04-09T16:51:19.146Z,22.69
2023-04-09T16:52:24.172Z,22.36
2023-04-09T16:53:26.997Z,21.66
2023-04-09T16:54:33.405Z,21.41
2023-04-09T16:55:36.125Z,20.78
2023-04-09T16:56:41.108Z,20.22
2023-04-09T16:57:43.414Z,19.48
2023-04-09T16:58:50.033Z,18.92
2023-04-09T16:59:54.163Z,18.28
2023-04-09T17:01:00.861Z,17.67
2023-04-09T17:02:03.267Z,17.23
2023-04-09T17:03:15.764Z,16.64
2023-04-09T17:04:20.994Z,16.34
2023-04-09T17:05:24.724Z,15.96
2023-04-09T17:06:29.948Z,15.60
2023-04-09T17:07:32.389Z,15.30
2023-04-09T17:08:46.063Z,14.91
2023-04-09T17:09:48.491Z,14.60
2023-04-09T17:11:02.471Z,14.41
2023-04-09T17:12:04.898Z,14.13
2023-04-09T17:13:10.499Z,13.76
2023-04-09T17:14:14.605Z,13.62
2023-04-09T17:15:19.537Z,13.24
2023-04-09T17:16:22.931Z,13.14
2023-04-09T17:17:28.417Z,12.89
2023-04-09T17:18:38.587Z,12.72
2023-04-09T17:19:42.884Z,12.59
2023-04-09T17:20:48.569Z,12.46
2023-04-09T17:21:53.571Z,12.38
2023-04-09T17:22:56.139Z,12.12
2023-04-09T17:24:03.460Z,12.04
2023-04-09T17:25:06.782Z,11.91
2023-04-09T17:26:17.030Z,11.74
2023-04-09T17:27:22.586Z,11.62
2023-04-09T17:28:29.234Z,11.47
2023-04-09T17:29:38.495Z,11.38
2023-04-09T17:30:43.850Z,11.25
2023-04-09T17:31:51.117Z,11.10
2023-04-09T17:33:00.075Z,10.98
2023-04-09T17:34:08.877Z,10.84
2023-04-09T17:35:12.523Z,10.72
2023-04-09T17:36:21.298Z,10.49
2023-04-09T17:37:31.260Z,10.43
2023-04-09T17:38:39.537Z,10.39
2023-04-09T17:39:51.569Z,10.23
2023-04-09T17:41:01.059Z,10.13
2023-04-09T17:42:09.888Z,10.01
2023-04-09T17:43:17.777Z,9.91
2023-04-09T17:44:23.240Z,9.80
2023-04-09T17:45:30.151Z,9.74
2023-04-09T17:46:34.658Z,9.61
2023-04-09T17:47:40.133Z,9.55
2023-04-09T17:48:42.386Z,9.46
2023-04-09T17:49:53.823Z,9.44
2023-04-09T17:50:59.173Z,9.30
2023-04-09T17:52:02.659Z,9.18
2023-04-09T17:53:08.137Z,9.07
2023-04-09T17:54:10.619Z,8.95
2023-04-09T17:55:18.207Z,8.88
2023-04-09T17:56:26.467Z,8.76
2023-04-09T17:57:32.562Z,8.63
2023-04-09T17:58:37.734Z,8.51
2023-04-09T17:59:43.639Z,8.40
2023-04-09T18:00:45.983Z,8.34
2023-04-09T18:01:51.616Z,8.27
2023-04-09T18:02:57.817Z,8.22
2023-04-09T18:04:04.585Z,8.12
2023-04-09T18:05:13.417Z,8.05
2023-04-09T18:06:18.931Z,7.99
2023-04-09T18:07:25.359Z,7.91
2023-04-09T18:08:29.232Z,7.80
2023-04-09T18:09:34.983Z,7.74
2023-04-09T18:10:42.882Z,7.60
2023-04-09T18:11:46.149Z,7.49
2023-04-09T18:12:51.586Z,7.39
2023-04-09T18:14:00.162Z,7.27
2023-04-09T18:15:02.341Z,7.18
2023-04-09T18:16:11.922Z,7.10
2023-04-09T18:17:17.582Z,7.02
2023-04-09T18:18:21.116Z,6.92
2023-04-09T18:19:26.396Z,6.84
2023-04-09T18:20:36.790Z,6.77
2023-04-09T18:21:39.107Z,6.71
2023-04-09T18:22:44.283Z,6.62
2023-04-09T18:23:46.767Z,6.58
2023-04-09T18:24:52.328Z,6.54
2023-04-09T18:25:55.100Z,6.47
2023-04-09T18:27:07.009Z,6.38
2023-04-09T18:28:09.632Z,6.28
2023-04-09T18:29:14.817Z,6.19
2023-04-09T18:30:17.172Z,6.18
2023-04-09T18:31:22.493Z,6.11
2023-04-09T18:32:26.152Z,6.02
2023-04-09T18:33:33.539Z,5.98
2023-04-09T18:34:38.473Z,5.90
2023-04-09T18:35:46.552Z,5.87
2023-04-09T18:36:51.433Z,5.81
2023-04-09T18:37:56.412Z,5.78
2023-04-09T18:38:58.907Z,5.72
2023-04-09T18:40:09.116Z,5.75
2023-04-09T18:41:16.876Z,5.69
2023-04-09T18:42:22.076Z,5.65
2023-04-09T18:43:26.543Z,5.65
2023-04-09T18:44:34.012Z,5.63
2023-04-09T18:45:39.734Z,5.57
2023-04-09T18:46:44.651Z,5.53
2023-04-09T18:47:46.903Z,5.48
2023-04-09T18:48:52.123Z,5.43
2023-04-09T18:49:54.523Z,5.36
2023-04-09T18:51:05.424Z,5.34
2023-04-09T18:52:10.962Z,5.36
2023-04-09T18:53:13.255Z,5.34
2023-04-09T18:54:18.789Z,5.28
2023-04-09T18:55:21.101Z,5.29
2023-04-09T18:56:26.408Z,5.24
2023-04-09T18:57:28.620Z,5.21
2023-04-09T18:58:36.275Z,5.21
2023-04-09T18:59:40.324Z,5.16
2023-04-09T19:00:50.881Z,5.13
2023-04-09T19:01:53.489Z,5.11
2023-04-09T19:02:58.458Z,5.11
2023-04-09T19:04:05.984Z,5.07
2023-04-09T19:05:14.950Z,5.05
2023-04-09T19:06:25.833Z,4.98
2023-04-09T19:07:28.271Z,5.05
2023-04-09T19:08:51.892Z,5.02
2023-04-09T19:09:57.853Z,4.95
2023-04-09T19:11:00.005Z,4.89
2023-04-09T19:12:05.368Z,4.96
2023-04-09T19:13:14.530Z,4.91
2023-04-09T19:14:19.903Z,4.89
2023-04-09T19:15:32.582Z,4.83
2023-04-09T19:16:37.797Z,4.78
2023-04-09T19:17:40.600Z,4.72
2023-04-09T19:18:45.757Z,4.71
2023-04-09T19:19:52.849Z,4.72
2023-04-09T19:20:58.308Z,4.66
2023-04-09T19:22:06.233Z,4.66
2023-04-09T19:23:08.526Z,4.63
2023-04-09T19:24:13.385Z,4.61
2023-04-09T19:25:16.451Z,4.63
2023-04-09T19:26:22.432Z,4.63
2023-04-09T19:27:24.921Z,4.60
2023-04-09T19:28:30.800Z,4.58
2023-04-09T19:29:36.604Z,4.59
2023-04-09T19:30:41.656Z,4.62
2023-04-09T19:31:44.532Z,4.63
2023-04-09T19:32:49.566Z,4.63
2023-04-09T19:33:52.698Z,4.63
2023-04-09T19:34:57.826Z,4.60
2023-04-09T19:36:03.106Z,4.61
2023-04-09T19:37:11.748Z,4.56
2023-04-09T19:38:14.060Z,4.49
2023-04-09T19:39:19.864Z,4.47
2023-04-09T19:40:25.908Z,4.45
2023-04-09T19:41:30.964Z,4.43
2023-04-09T19:42:38.249Z,4.42
2023-04-09T19:43:44.384Z,4.36
2023-04-09T19:44:50.060Z,4.32
2023-04-09T19:45:56.778Z,4.29
2023-04-09T19:46:59.038Z,4.25
2023-04-09T19:48:04.652Z,4.21
2023-04-09T19:49:07.108Z,4.17